sensor_id;sensor_type;location;lat;lon;timestamp;P1;durP1;ratioP1;P2;durP2;ratioP2
7338;SDS011;33747;49.524;8.390;2022-12-16T00:00:13;30.02;;;13.48;;
7338;SDS011;33747;49.524;8.390;2022-12-16T00:02:39;27.02;;;14.38;;
7338;SDS011;33747;49.524;8.390;2022-12-16T00:05:05;29.73;;;14.75;;
7338;SDS011;33747;49.524;8.390;2022-12-16T00:07:31;25.45;;;13.38;;
7338;SDS011;33747;49.524;8.390;2022-12-16T00:09:56;29.75;;;15.38;;
7338;SDS011;33747;49.524;8.390;2022-12-16T00:12:21;32.88;;;15.02;;
7338;SDS011;33747;49.524;8.390;2022-12-16T00:14:47;28.50;;;14.70;;
7338;SDS011;33747;49.524;8.390;2022-12-16T00:17:12;28.85;;;15.27;;
7338;SDS011;33747;49.524;8.390;2022-12-16T00:19:38;28.17;;;15.00;;
7338;SDS011;33747;49.524;8.390;2022-12-16T00:22:03;32.28;;;14.45;;
7338;SDS011;33747;49.524;8.390;2022-12-16T00:24:28;26.13;;;12.18;;
7338;SDS011;33747;49.524;8.390;2022-12-16T00:26:55;29.90;;;15.13;;
7338;SDS011;33747;49.524;8.390;2022-12-16T00:29:21;28.55;;;13.00;;
7338;SDS011;33747;49.524;8.390;2022-12-16T00:31:46;31.10;;;14.77;;
7338;SDS011;33747;49.524;8.390;2022-12-16T00:34:12;31.85;;;13.82;;
7338;SDS011;33747;49.524;8.390;2022-12-16T00:36:38;28.33;;;13.57;;
7338;SDS011;33747;49.524;8.390;2022-12-16T00:39:04;30.20;;;14.43;;
7338;SDS011;33747;49.524;8.390;2022-12-16T00:41:29;26.95;;;12.55;;
7338;SDS011;33747;49.524;8.390;2022-12-16T00:43:54;27.45;;;14.40;;
7338;SDS011;33747;49.524;8.390;2022-12-16T00:46:20;30.95;;;14.93;;
7338;SDS011;33747;49.524;8.390;2022-12-16T00:48:45;29.92;;;14.13;;
7338;SDS011;33747;49.524;8.390;2022-12-16T00:51:11;29.42;;;14.27;;
7338;SDS011;33747;49.524;8.390;2022-12-16T00:53:36;27.45;;;13.02;;
7338;SDS011;33747;49.524;8.390;2022-12-16T00:56:06;27.05;;;14.02;;
7338;SDS011;33747;49.524;8.390;2022-12-16T00:58:33;33.00;;;14.25;;
7338;SDS011;33747;49.524;8.390;2022-12-16T01:00:58;29.60;;;14.35;;
7338;SDS011;33747;49.524;8.390;2022-12-16T01:03:24;26.10;;;12.68;;
7338;SDS011;33747;49.524;8.390;2022-12-16T01:05:49;25.70;;;13.60;;
7338;SDS011;33747;49.524;8.390;2022-12-16T01:08:15;27.20;;;13.60;;
7338;SDS011;33747;49.524;8.390;2022-12-16T01:10:40;27.60;;;14.00;;
7338;SDS011;33747;49.524;8.390;2022-12-16T01:13:06;29.58;;;14.15;;
7338;SDS011;33747;49.524;8.390;2022-12-16T01:15:31;32.00;;;14.02;;
7338;SDS011;33747;49.524;8.390;2022-12-16T01:17:56;27.58;;;13.50;;
7338;SDS011;33747;49.524;8.390;2022-12-16T01:20:22;26.52;;;13.70;;
7338;SDS011;33747;49.524;8.390;2022-12-16T01:22:47;25.23;;;12.13;;
7338;SDS011;33747;49.524;8.390;2022-12-16T01:25:13;27.50;;;13.05;;
7338;SDS011;33747;49.524;8.390;2022-12-16T01:27:38;27.65;;;13.30;;
7338;SDS011;33747;49.524;8.390;2022-12-16T01:30:04;28.92;;;13.77;;
7338;SDS011;33747;49.524;8.390;2022-12-16T01:32:30;31.50;;;13.43;;
7338;SDS011;33747;49.524;8.390;2022-12-16T01:34:55;28.90;;;13.95;;
7338;SDS011;33747;49.524;8.390;2022-12-16T01:37:20;26.52;;;13.00;;
7338;SDS011;33747;49.524;8.390;2022-12-16T01:39:47;28.15;;;12.65;;
7338;SDS011;33747;49.524;8.390;2022-12-16T01:42:13;26.48;;;12.57;;
7338;SDS011;33747;49.524;8.390;2022-12-16T01:44:41;25.05;;;12.15;;
7338;SDS011;33747;49.524;8.390;2022-12-16T01:47:08;26.10;;;13.73;;
7338;SDS011;33747;49.524;8.390;2022-12-16T01:49:43;26.70;;;13.23;;
7338;SDS011;33747;49.524;8.390;2022-12-16T01:52:14;31.67;;;12.77;;
7338;SDS011;33747;49.524;8.390;2022-12-16T01:54:53;26.45;;;14.55;;
7338;SDS011;33747;49.524;8.390;2022-12-16T01:57:24;26.45;;;12.10;;
7338;SDS011;33747;49.524;8.390;2022-12-16T01:59:51;25.45;;;12.55;;
7338;SDS011;33747;49.524;8.390;2022-12-16T02:02:18;22.67;;;11.60;;
7338;SDS011;33747;49.524;8.390;2022-12-16T02:04:43;28.35;;;12.45;;
7338;SDS011;33747;49.524;8.390;2022-12-16T02:07:27;26.67;;;13.15;;
7338;SDS011;33747;49.524;8.390;2022-12-16T02:09:53;23.77;;;11.07;;
7338;SDS011;33747;49.524;8.390;2022-12-16T02:12:23;21.23;;;11.00;;
7338;SDS011;33747;49.524;8.390;2022-12-16T02:15:10;21.05;;;12.02;;
7338;SDS011;33747;49.524;8.390;2022-12-16T02:17:44;25.90;;;13.23;;
7338;SDS011;33747;49.524;8.390;2022-12-16T02:20:26;25.70;;;11.43;;
7338;SDS011;33747;49.524;8.390;2022-12-16T02:26:18;26.75;;;13.07;;
7338;SDS011;33747;49.524;8.390;2022-12-16T02:29:23;23.17;;;11.95;;
7338;SDS011;33747;49.524;8.390;2022-12-16T02:32:19;26.02;;;12.02;;
7338;SDS011;33747;49.524;8.390;2022-12-16T02:37:32;22.45;;;12.23;;
7338;SDS011;33747;49.524;8.390;2022-12-16T02:40:15;26.63;;;12.55;;
7338;SDS011;33747;49.524;8.390;2022-12-16T02:42:50;28.45;;;11.65;;
7338;SDS011;33747;49.524;8.390;2022-12-16T02:45:20;28.25;;;12.25;;
7338;SDS011;33747;49.524;8.390;2022-12-16T02:47:48;27.83;;;12.57;;
7338;SDS011;33747;49.524;8.390;2022-12-16T02:50:16;25.23;;;11.35;;
7338;SDS011;33747;49.524;8.390;2022-12-16T02:52:42;25.90;;;12.50;;
7338;SDS011;33747;49.524;8.390;2022-12-16T02:55:07;22.83;;;11.82;;
7338;SDS011;33747;49.524;8.390;2022-12-16T03:00:20;20.55;;;11.38;;
7338;SDS011;33747;49.524;8.390;2022-12-16T03:05:41;28.25;;;12.18;;
7338;SDS011;33747;49.524;8.390;2022-12-16T03:08:10;28.08;;;12.70;;
7338;SDS011;33747;49.524;8.390;2022-12-16T03:10:40;26.13;;;12.50;;
7338;SDS011;33747;49.524;8.390;2022-12-16T03:13:09;30.55;;;13.30;;
7338;SDS011;33747;49.524;8.390;2022-12-16T03:15:35;24.70;;;12.25;;
7338;SDS011;33747;49.524;8.390;2022-12-16T03:18:03;24.45;;;11.52;;
7338;SDS011;33747;49.524;8.390;2022-12-16T03:23:18;26.85;;;12.75;;
7338;SDS011;33747;49.524;8.390;2022-12-16T03:25:46;22.27;;;10.20;;
7338;SDS011;33747;49.524;8.390;2022-12-16T03:28:31;24.13;;;11.30;;
7338;SDS011;33747;49.524;8.390;2022-12-16T03:31:06;22.42;;;10.10;;
7338;SDS011;33747;49.524;8.390;2022-12-16T03:33:39;22.73;;;10.85;;
7338;SDS011;33747;49.524;8.390;2022-12-16T03:36:09;24.58;;;11.35;;
7338;SDS011;33747;49.524;8.390;2022-12-16T03:38:38;21.38;;;10.15;;
7338;SDS011;33747;49.524;8.390;2022-12-16T03:41:04;22.08;;;10.35;;
7338;SDS011;33747;49.524;8.390;2022-12-16T03:43:30;26.23;;;11.32;;
7338;SDS011;33747;49.524;8.390;2022-12-16T03:45:56;26.50;;;12.10;;
7338;SDS011;33747;49.524;8.390;2022-12-16T03:48:25;24.85;;;10.63;;
7338;SDS011;33747;49.524;8.390;2022-12-16T03:50:50;21.92;;;11.35;;
7338;SDS011;33747;49.524;8.390;2022-12-16T03:53:16;21.98;;;10.15;;
7338;SDS011;33747;49.524;8.390;2022-12-16T03:55:41;23.63;;;11.35;;
7338;SDS011;33747;49.524;8.390;2022-12-16T03:58:06;23.63;;;9.98;;
7338;SDS011;33747;49.524;8.390;2022-12-16T04:00:32;23.50;;;11.60;;
7338;SDS011;33747;49.524;8.390;2022-12-16T04:02:57;26.67;;;10.57;;
7338;SDS011;33747;49.524;8.390;2022-12-16T04:05:23;23.45;;;11.02;;
7338;SDS011;33747;49.524;8.390;2022-12-16T04:07:48;21.35;;;11.52;;
7338;SDS011;33747;49.524;8.390;2022-12-16T04:10:13;27.40;;;10.68;;
7338;SDS011;33747;49.524;8.390;2022-12-16T04:12:39;22.08;;;10.70;;
7338;SDS011;33747;49.524;8.390;2022-12-16T04:15:23;21.83;;;10.88;;
7338;SDS011;33747;49.524;8.390;2022-12-16T04:18:11;21.98;;;10.93;;
7338;SDS011;33747;49.524;8.390;2022-12-16T04:20:57;20.63;;;10.30;;
7338;SDS011;33747;49.524;8.390;2022-12-16T04:23:46;19.50;;;10.48;;
7338;SDS011;33747;49.524;8.390;2022-12-16T04:26:31;28.83;;;12.35;;
7338;SDS011;33747;49.524;8.390;2022-12-16T04:29:17;21.63;;;10.15;;
7338;SDS011;33747;49.524;8.390;2022-12-16T04:31:42;24.00;;;10.88;;
7338;SDS011;33747;49.524;8.390;2022-12-16T04:34:07;23.25;;;11.30;;
7338;SDS011;33747;49.524;8.390;2022-12-16T04:36:53;25.88;;;12.00;;
7338;SDS011;33747;49.524;8.390;2022-12-16T04:39:41;27.33;;;11.32;;
7338;SDS011;33747;49.524;8.390;2022-12-16T04:42:25;27.42;;;11.48;;
7338;SDS011;33747;49.524;8.390;2022-12-16T04:45:08;25.00;;;11.82;;
7338;SDS011;33747;49.524;8.390;2022-12-16T04:47:53;21.30;;;10.10;;
7338;SDS011;33747;49.524;8.390;2022-12-16T04:50:37;29.65;;;11.95;;
7338;SDS011;33747;49.524;8.390;2022-12-16T04:53:22;26.40;;;12.15;;
7338;SDS011;33747;49.524;8.390;2022-12-16T04:56:06;22.83;;;10.93;;
7338;SDS011;33747;49.524;8.390;2022-12-16T04:58:50;24.13;;;11.20;;
7338;SDS011;33747;49.524;8.390;2022-12-16T05:01:34;22.45;;;12.20;;
7338;SDS011;33747;49.524;8.390;2022-12-16T05:04:18;22.63;;;11.40;;
7338;SDS011;33747;49.524;8.390;2022-12-16T05:07:02;27.00;;;12.48;;
7338;SDS011;33747;49.524;8.390;2022-12-16T05:09:46;21.55;;;10.70;;
7338;SDS011;33747;49.524;8.390;2022-12-16T05:12:30;21.70;;;11.63;;
7338;SDS011;33747;49.524;8.390;2022-12-16T05:15:14;23.75;;;10.80;;
7338;SDS011;33747;49.524;8.390;2022-12-16T05:17:57;24.45;;;10.23;;
7338;SDS011;33747;49.524;8.390;2022-12-16T05:20:41;23.67;;;11.13;;
7338;SDS011;33747;49.524;8.390;2022-12-16T05:23:25;20.52;;;9.82;;
7338;SDS011;33747;49.524;8.390;2022-12-16T05:26:09;23.13;;;11.02;;
7338;SDS011;33747;49.524;8.390;2022-12-16T05:28:53;25.35;;;10.27;;
7338;SDS011;33747;49.524;8.390;2022-12-16T05:31:37;21.20;;;10.00;;
7338;SDS011;33747;49.524;8.390;2022-12-16T05:34:21;25.10;;;10.50;;
7338;SDS011;33747;49.524;8.390;2022-12-16T05:37:05;23.50;;;9.93;;
7338;SDS011;33747;49.524;8.390;2022-12-16T05:39:49;20.35;;;10.15;;
7338;SDS011;33747;49.524;8.390;2022-12-16T05:42:33;27.65;;;12.50;;
7338;SDS011;33747;49.524;8.390;2022-12-16T05:45:17;25.70;;;11.60;;
7338;SDS011;33747;49.524;8.390;2022-12-16T05:48:01;24.88;;;10.65;;
7338;SDS011;33747;49.524;8.390;2022-12-16T05:50:45;25.67;;;11.20;;
7338;SDS011;33747;49.524;8.390;2022-12-16T05:53:29;23.00;;;10.38;;
7338;SDS011;33747;49.524;8.390;2022-12-16T05:56:13;21.05;;;9.82;;
7338;SDS011;33747;49.524;8.390;2022-12-16T05:58:57;22.40;;;9.90;;
7338;SDS011;33747;49.524;8.390;2022-12-16T06:01:40;22.73;;;10.30;;
7338;SDS011;33747;49.524;8.390;2022-12-16T06:04:24;17.30;;;9.02;;
7338;SDS011;33747;49.524;8.390;2022-12-16T06:07:08;21.10;;;11.07;;
7338;SDS011;33747;49.524;8.390;2022-12-16T06:09:52;20.25;;;9.70;;
7338;SDS011;33747;49.524;8.390;2022-12-16T06:12:36;19.08;;;9.70;;
7338;SDS011;33747;49.524;8.390;2022-12-16T06:15:20;22.52;;;10.27;;
7338;SDS011;33747;49.524;8.390;2022-12-16T06:18:04;21.38;;;10.43;;
7338;SDS011;33747;49.524;8.390;2022-12-16T06:20:48;21.52;;;9.57;;
7338;SDS011;33747;49.524;8.390;2022-12-16T06:23:32;22.38;;;10.07;;
7338;SDS011;33747;49.524;8.390;2022-12-16T06:26:16;21.58;;;9.60;;
7338;SDS011;33747;49.524;8.390;2022-12-16T06:29:00;23.95;;;11.25;;
7338;SDS011;33747;49.524;8.390;2022-12-16T06:31:44;23.67;;;10.02;;
7338;SDS011;33747;49.524;8.390;2022-12-16T06:34:28;23.05;;;11.10;;
7338;SDS011;33747;49.524;8.390;2022-12-16T06:37:12;25.05;;;10.40;;
7338;SDS011;33747;49.524;8.390;2022-12-16T06:40:03;22.50;;;11.18;;
7338;SDS011;33747;49.524;8.390;2022-12-16T06:42:47;26.67;;;10.82;;
7338;SDS011;33747;49.524;8.390;2022-12-16T06:45:31;24.23;;;10.20;;
7338;SDS011;33747;49.524;8.390;2022-12-16T06:48:15;25.13;;;10.75;;
7338;SDS011;33747;49.524;8.390;2022-12-16T06:50:59;33.40;;;11.60;;
7338;SDS011;33747;49.524;8.390;2022-12-16T06:53:43;28.20;;;10.90;;
7338;SDS011;33747;49.524;8.390;2022-12-16T06:56:27;21.70;;;11.02;;
7338;SDS011;33747;49.524;8.390;2022-12-16T06:59:11;22.92;;;9.88;;
7338;SDS011;33747;49.524;8.390;2022-12-16T07:01:55;23.65;;;11.15;;
7338;SDS011;33747;49.524;8.390;2022-12-16T07:04:39;23.63;;;10.27;;
7338;SDS011;33747;49.524;8.390;2022-12-16T07:07:23;20.75;;;9.82;;
7338;SDS011;33747;49.524;8.390;2022-12-16T07:10:07;23.27;;;10.68;;
7338;SDS011;33747;49.524;8.390;2022-12-16T07:12:51;25.65;;;11.15;;
7338;SDS011;33747;49.524;8.390;2022-12-16T07:15:35;24.73;;;11.18;;
7338;SDS011;33747;49.524;8.390;2022-12-16T07:18:19;33.50;;;12.48;;
7338;SDS011;33747;49.524;8.390;2022-12-16T07:21:03;28.40;;;11.52;;
7338;SDS011;33747;49.524;8.390;2022-12-16T07:23:47;27.42;;;11.85;;
7338;SDS011;33747;49.524;8.390;2022-12-16T07:26:31;17.20;;;9.98;;
7338;SDS011;33747;49.524;8.390;2022-12-16T07:29:15;28.80;;;11.40;;
7338;SDS011;33747;49.524;8.390;2022-12-16T07:31:59;21.90;;;10.63;;
7338;SDS011;33747;49.524;8.390;2022-12-16T07:34:43;23.05;;;10.27;;
7338;SDS011;33747;49.524;8.390;2022-12-16T07:37:27;22.13;;;9.80;;
7338;SDS011;33747;49.524;8.390;2022-12-16T07:40:11;27.20;;;10.00;;
7338;SDS011;33747;49.524;8.390;2022-12-16T07:42:55;23.83;;;10.65;;
7338;SDS011;33747;49.524;8.390;2022-12-16T07:45:39;18.13;;;9.82;;
7338;SDS011;33747;49.524;8.390;2022-12-16T07:48:23;21.30;;;10.32;;
7338;SDS011;33747;49.524;8.390;2022-12-16T07:51:07;23.60;;;11.07;;
7338;SDS011;33747;49.524;8.390;2022-12-16T07:53:51;29.30;;;11.38;;
7338;SDS011;33747;49.524;8.390;2022-12-16T07:56:35;21.83;;;9.75;;
7338;SDS011;33747;49.524;8.390;2022-12-16T07:59:18;26.73;;;10.68;;
7338;SDS011;33747;49.524;8.390;2022-12-16T08:02:03;24.45;;;10.07;;
7338;SDS011;33747;49.524;8.390;2022-12-16T08:04:47;22.77;;;9.57;;
7338;SDS011;33747;49.524;8.390;2022-12-16T08:07:31;22.48;;;10.98;;
7338;SDS011;33747;49.524;8.390;2022-12-16T08:10:14;18.63;;;9.38;;
7338;SDS011;33747;49.524;8.390;2022-12-16T08:13:02;23.10;;;9.38;;
7338;SDS011;33747;49.524;8.390;2022-12-16T08:15:47;22.80;;;9.48;;
7338;SDS011;33747;49.524;8.390;2022-12-16T08:18:31;23.83;;;9.98;;
7338;SDS011;33747;49.524;8.390;2022-12-16T08:21:15;24.55;;;10.00;;
7338;SDS011;33747;49.524;8.390;2022-12-16T08:23:59;28.02;;;11.68;;
7338;SDS011;33747;49.524;8.390;2022-12-16T08:26:43;22.02;;;9.23;;
7338;SDS011;33747;49.524;8.390;2022-12-16T08:29:27;27.27;;;10.70;;
7338;SDS011;33747;49.524;8.390;2022-12-16T08:32:11;22.05;;;9.95;;
7338;SDS011;33747;49.524;8.390;2022-12-16T08:34:56;27.90;;;10.25;;
7338;SDS011;33747;49.524;8.390;2022-12-16T08:37:40;21.70;;;9.88;;
7338;SDS011;33747;49.524;8.390;2022-12-16T08:40:24;20.98;;;10.65;;
7338;SDS011;33747;49.524;8.390;2022-12-16T08:43:08;23.20;;;11.57;;
7338;SDS011;33747;49.524;8.390;2022-12-16T08:45:52;27.23;;;10.13;;
7338;SDS011;33747;49.524;8.390;2022-12-16T08:48:36;18.67;;;9.07;;
7338;SDS011;33747;49.524;8.390;2022-12-16T08:51:20;22.58;;;9.55;;
7338;SDS011;33747;49.524;8.390;2022-12-16T08:54:04;23.13;;;11.25;;
7338;SDS011;33747;49.524;8.390;2022-12-16T08:56:48;26.33;;;9.80;;
7338;SDS011;33747;49.524;8.390;2022-12-16T08:59:32;26.17;;;10.73;;
7338;SDS011;33747;49.524;8.390;2022-12-16T09:02:16;19.58;;;9.77;;
7338;SDS011;33747;49.524;8.390;2022-12-16T09:05:00;24.20;;;10.82;;
7338;SDS011;33747;49.524;8.390;2022-12-16T09:07:44;19.38;;;10.13;;
7338;SDS011;33747;49.524;8.390;2022-12-16T09:10:28;17.77;;;8.65;;
7338;SDS011;33747;49.524;8.390;2022-12-16T09:13:13;22.67;;;9.43;;
7338;SDS011;33747;49.524;8.390;2022-12-16T09:15:58;23.42;;;10.68;;
7338;SDS011;33747;49.524;8.390;2022-12-16T09:18:42;20.85;;;10.95;;
7338;SDS011;33747;49.524;8.390;2022-12-16T09:21:26;26.05;;;10.43;;
7338;SDS011;33747;49.524;8.390;2022-12-16T09:24:11;25.02;;;10.35;;
7338;SDS011;33747;49.524;8.390;2022-12-16T09:26:55;21.52;;;11.75;;
7338;SDS011;33747;49.524;8.390;2022-12-16T09:29:38;19.65;;;8.93;;
7338;SDS011;33747;49.524;8.390;2022-12-16T09:32:22;19.92;;;9.13;;
7338;SDS011;33747;49.524;8.390;2022-12-16T09:35:06;18.08;;;8.50;;
7338;SDS011;33747;49.524;8.390;2022-12-16T09:37:50;12.93;;;8.45;;
7338;SDS011;33747;49.524;8.390;2022-12-16T09:40:36;21.35;;;9.02;;
7338;SDS011;33747;49.524;8.390;2022-12-16T09:46:29;21.60;;;9.65;;
7338;SDS011;33747;49.524;8.390;2022-12-16T09:49:31;21.70;;;8.88;;
7338;SDS011;33747;49.524;8.390;2022-12-16T09:52:53;21.33;;;8.52;;
7338;SDS011;33747;49.524;8.390;2022-12-16T09:55:37;18.40;;;8.23;;
7338;SDS011;33747;49.524;8.390;2022-12-16T09:58:23;17.80;;;8.48;;
7338;SDS011;33747;49.524;8.390;2022-12-16T10:01:10;13.07;;;7.13;;
7338;SDS011;33747;49.524;8.390;2022-12-16T10:03:55;13.45;;;6.78;;
7338;SDS011;33747;49.524;8.390;2022-12-16T10:09:42;18.00;;;8.35;;
7338;SDS011;33747;49.524;8.390;2022-12-16T10:15:43;15.57;;;7.97;;
7338;SDS011;33747;49.524;8.390;2022-12-16T10:18:53;15.75;;;8.23;;
7338;SDS011;33747;49.524;8.390;2022-12-16T10:21:54;24.38;;;8.70;;
7338;SDS011;33747;49.524;8.390;2022-12-16T10:24:57;13.63;;;7.30;;
7338;SDS011;33747;49.524;8.390;2022-12-16T10:28:46;16.05;;;7.85;;
7338;SDS011;33747;49.524;8.390;2022-12-16T10:31:15;15.57;;;7.82;;
7338;SDS011;33747;49.524;8.390;2022-12-16T10:34:01;17.48;;;8.07;;
7338;SDS011;33747;49.524;8.390;2022-12-16T10:36:48;21.05;;;8.52;;
7338;SDS011;33747;49.524;8.390;2022-12-16T10:39:34;13.80;;;8.50;;
7338;SDS011;33747;49.524;8.390;2022-12-16T10:42:25;22.67;;;9.15;;
7338;SDS011;33747;49.524;8.390;2022-12-16T10:45:15;16.77;;;8.07;;
7338;SDS011;33747;49.524;8.390;2022-12-16T10:48:01;13.73;;;7.78;;
7338;SDS011;33747;49.524;8.390;2022-12-16T10:50:59;14.95;;;7.95;;
7338;SDS011;33747;49.524;8.390;2022-12-16T10:53:43;15.27;;;8.23;;
7338;SDS011;33747;49.524;8.390;2022-12-16T10:56:46;17.98;;;8.93;;
7338;SDS011;33747;49.524;8.390;2022-12-16T10:59:38;15.43;;;8.48;;
7338;SDS011;33747;49.524;8.390;2022-12-16T11:02:24;14.30;;;7.53;;
7338;SDS011;33747;49.524;8.390;2022-12-16T11:08:23;20.88;;;8.75;;
7338;SDS011;33747;49.524;8.390;2022-12-16T11:11:24;14.80;;;7.72;;
7338;SDS011;33747;49.524;8.390;2022-12-16T11:14:14;14.02;;;8.65;;
7338;SDS011;33747;49.524;8.390;2022-12-16T11:20:07;18.88;;;8.95;;
7338;SDS011;33747;49.524;8.390;2022-12-16T11:26:06;18.00;;;8.63;;
7338;SDS011;33747;49.524;8.390;2022-12-16T11:29:12;15.15;;;8.30;;
7338;SDS011;33747;49.524;8.390;2022-12-16T11:32:18;17.63;;;8.80;;
7338;SDS011;33747;49.524;8.390;2022-12-16T11:35:04;15.48;;;8.52;;
7338;SDS011;33747;49.524;8.390;2022-12-16T11:37:49;19.15;;;8.05;;
7338;SDS011;33747;49.524;8.390;2022-12-16T11:40:35;16.77;;;8.93;;
7338;SDS011;33747;49.524;8.390;2022-12-16T11:43:20;15.60;;;8.63;;
7338;SDS011;33747;49.524;8.390;2022-12-16T11:46:11;13.40;;;7.63;;
7338;SDS011;33747;49.524;8.390;2022-12-16T11:48:57;15.50;;;8.13;;
7338;SDS011;33747;49.524;8.390;2022-12-16T11:51:52;19.10;;;8.65;;
7338;SDS011;33747;49.524;8.390;2022-12-16T11:54:39;15.68;;;8.73;;
7338;SDS011;33747;49.524;8.390;2022-12-16T11:57:56;14.98;;;8.98;;
7338;SDS011;33747;49.524;8.390;2022-12-16T12:01:11;15.15;;;7.40;;
7338;SDS011;33747;49.524;8.390;2022-12-16T12:03:59;16.58;;;8.32;;
7338;SDS011;33747;49.524;8.390;2022-12-16T12:06:56;17.42;;;8.55;;
7338;SDS011;33747;49.524;8.390;2022-12-16T12:09:48;14.23;;;8.20;;
7338;SDS011;33747;49.524;8.390;2022-12-16T12:12:47;14.77;;;8.52;;
7338;SDS011;33747;49.524;8.390;2022-12-16T12:21:40;21.75;;;8.35;;
7338;SDS011;33747;49.524;8.390;2022-12-16T12:24:52;19.35;;;9.40;;
7338;SDS011;33747;49.524;8.390;2022-12-16T12:27:47;15.15;;;8.85;;
7338;SDS011;33747;49.524;8.390;2022-12-16T12:34:00;19.58;;;8.40;;
7338;SDS011;33747;49.524;8.390;2022-12-16T12:40:08;13.68;;;8.13;;
7338;SDS011;33747;49.524;8.390;2022-12-16T12:42:59;19.17;;;8.85;;
7338;SDS011;33747;49.524;8.390;2022-12-16T12:46:05;12.85;;;7.90;;
7338;SDS011;33747;49.524;8.390;2022-12-16T12:52:23;16.35;;;8.10;;
7338;SDS011;33747;49.524;8.390;2022-12-16T12:58:20;22.02;;;9.30;;
7338;SDS011;33747;49.524;8.390;2022-12-16T13:01:04;17.52;;;8.30;;
7338;SDS011;33747;49.524;8.390;2022-12-16T13:03:54;17.77;;;9.38;;
7338;SDS011;33747;49.524;8.390;2022-12-16T13:06:41;14.98;;;8.93;;
7338;SDS011;33747;49.524;8.390;2022-12-16T13:09:32;19.17;;;9.18;;
7338;SDS011;33747;49.524;8.390;2022-12-16T13:12:25;19.13;;;8.70;;
7338;SDS011;33747;49.524;8.390;2022-12-16T13:15:17;24.38;;;9.50;;
7338;SDS011;33747;49.524;8.390;2022-12-16T13:21:41;14.05;;;8.60;;
7338;SDS011;33747;49.524;8.390;2022-12-16T13:27:13;17.67;;;9.65;;
7338;SDS011;33747;49.524;8.390;2022-12-16T13:29:59;12.38;;;7.82;;
7338;SDS011;33747;49.524;8.390;2022-12-16T13:32:52;15.80;;;9.75;;
7338;SDS011;33747;49.524;8.390;2022-12-16T13:35:47;16.80;;;9.33;;
7338;SDS011;33747;49.524;8.390;2022-12-16T13:38:35;15.43;;;8.98;;
7338;SDS011;33747;49.524;8.390;2022-12-16T13:50:37;23.65;;;10.32;;
7338;SDS011;33747;49.524;8.390;2022-12-16T13:53:23;17.90;;;9.65;;
7338;SDS011;33747;49.524;8.390;2022-12-16T13:56:10;16.85;;;8.98;;
7338;SDS011;33747;49.524;8.390;2022-12-16T13:58:58;15.20;;;9.30;;
7338;SDS011;33747;49.524;8.390;2022-12-16T14:01:53;16.27;;;8.52;;
7338;SDS011;33747;49.524;8.390;2022-12-16T14:04:42;18.63;;;8.95;;
7338;SDS011;33747;49.524;8.390;2022-12-16T14:07:28;16.92;;;9.52;;
7338;SDS011;33747;49.524;8.390;2022-12-16T14:10:32;13.60;;;9.07;;
7338;SDS011;33747;49.524;8.390;2022-12-16T14:13:29;14.40;;;9.07;;
7338;SDS011;33747;49.524;8.390;2022-12-16T14:25:30;18.75;;;10.40;;
7338;SDS011;33747;49.524;8.390;2022-12-16T14:28:20;17.02;;;10.10;;
7338;SDS011;33747;49.524;8.390;2022-12-16T14:31:51;18.55;;;9.75;;
7338;SDS011;33747;49.524;8.390;2022-12-16T14:34:23;17.40;;;9.85;;
7338;SDS011;33747;49.524;8.390;2022-12-16T14:37:14;18.75;;;9.38;;
7338;SDS011;33747;49.524;8.390;2022-12-16T14:40:03;19.98;;;8.75;;
7338;SDS011;33747;49.524;8.390;2022-12-16T14:42:50;22.05;;;11.18;;
7338;SDS011;33747;49.524;8.390;2022-12-16T14:45:37;16.80;;;9.35;;
7338;SDS011;33747;49.524;8.390;2022-12-16T14:48:38;18.65;;;10.02;;
7338;SDS011;33747;49.524;8.390;2022-12-16T14:51:23;18.30;;;9.90;;
7338;SDS011;33747;49.524;8.390;2022-12-16T14:54:30;18.63;;;9.05;;
7338;SDS011;33747;49.524;8.390;2022-12-16T14:57:19;19.10;;;9.38;;
7338;SDS011;33747;49.524;8.390;2022-12-16T15:02:50;18.60;;;9.68;;
7338;SDS011;33747;49.524;8.390;2022-12-16T15:05:36;19.50;;;10.30;;
7338;SDS011;33747;49.524;8.390;2022-12-16T15:08:21;17.92;;;10.07;;
7338;SDS011;33747;49.524;8.390;2022-12-16T15:11:06;20.92;;;11.50;;
7338;SDS011;33747;49.524;8.390;2022-12-16T15:13:54;22.02;;;11.10;;
7338;SDS011;33747;49.524;8.390;2022-12-16T15:16:41;22.33;;;10.93;;
7338;SDS011;33747;49.524;8.390;2022-12-16T15:19:25;21.38;;;11.38;;
7338;SDS011;33747;49.524;8.390;2022-12-16T15:22:13;30.15;;;12.48;;
7338;SDS011;33747;49.524;8.390;2022-12-16T15:24:57;26.63;;;12.85;;
7338;SDS011;33747;49.524;8.390;2022-12-16T15:27:41;25.17;;;13.43;;
7338;SDS011;33747;49.524;8.390;2022-12-16T15:33:19;35.50;;;14.95;;
7338;SDS011;33747;49.524;8.390;2022-12-16T15:36:27;26.35;;;12.20;;
7338;SDS011;33747;49.524;8.390;2022-12-16T15:39:17;27.95;;;10.93;;
7338;SDS011;33747;49.524;8.390;2022-12-16T15:42:04;24.52;;;12.60;;
7338;SDS011;33747;49.524;8.390;2022-12-16T15:44:58;26.27;;;12.77;;
7338;SDS011;33747;49.524;8.390;2022-12-16T15:47:42;32.28;;;14.35;;
7338;SDS011;33747;49.524;8.390;2022-12-16T15:50:27;21.25;;;12.05;;
7338;SDS011;33747;49.524;8.390;2022-12-16T15:53:31;26.20;;;12.27;;
7338;SDS011;33747;49.524;8.390;2022-12-16T15:56:31;31.33;;;14.63;;
7338;SDS011;33747;49.524;8.390;2022-12-16T15:59:27;31.20;;;13.50;;
7338;SDS011;33747;49.524;8.390;2022-12-16T16:05:17;24.27;;;12.10;;
7338;SDS011;33747;49.524;8.390;2022-12-16T16:08:02;28.75;;;11.48;;
7338;SDS011;33747;49.524;8.390;2022-12-16T16:10:46;23.60;;;12.40;;
7338;SDS011;33747;49.524;8.390;2022-12-16T16:13:35;30.48;;;12.45;;
7338;SDS011;33747;49.524;8.390;2022-12-16T16:16:19;26.73;;;12.52;;
7338;SDS011;33747;49.524;8.390;2022-12-16T16:19:03;29.80;;;13.68;;
7338;SDS011;33747;49.524;8.390;2022-12-16T16:21:52;27.45;;;12.95;;
7338;SDS011;33747;49.524;8.390;2022-12-16T16:24:36;25.42;;;11.77;;
7338;SDS011;33747;49.524;8.390;2022-12-16T16:27:20;29.33;;;11.63;;
7338;SDS011;33747;49.524;8.390;2022-12-16T16:30:05;27.83;;;10.68;;
7338;SDS011;33747;49.524;8.390;2022-12-16T16:32:51;25.60;;;11.75;;
7338;SDS011;33747;49.524;8.390;2022-12-16T16:35:35;20.85;;;11.63;;
7338;SDS011;33747;49.524;8.390;2022-12-16T16:38:19;20.55;;;10.68;;
7338;SDS011;33747;49.524;8.390;2022-12-16T16:41:03;24.25;;;11.50;;
7338;SDS011;33747;49.524;8.390;2022-12-16T16:43:47;20.80;;;10.60;;
7338;SDS011;33747;49.524;8.390;2022-12-16T16:46:40;19.85;;;10.40;;
7338;SDS011;33747;49.524;8.390;2022-12-16T16:52:14;25.25;;;11.15;;
7338;SDS011;33747;49.524;8.390;2022-12-16T16:54:59;25.35;;;11.63;;
7338;SDS011;33747;49.524;8.390;2022-12-16T16:57:43;29.15;;;12.10;;
7338;SDS011;33747;49.524;8.390;2022-12-16T17:00:27;19.98;;;10.48;;
7338;SDS011;33747;49.524;8.390;2022-12-16T17:03:11;21.05;;;10.75;;
7338;SDS011;33747;49.524;8.390;2022-12-16T17:05:55;22.77;;;11.25;;
7338;SDS011;33747;49.524;8.390;2022-12-16T17:08:39;23.17;;;11.65;;
7338;SDS011;33747;49.524;8.390;2022-12-16T17:11:23;29.05;;;12.93;;
7338;SDS011;33747;49.524;8.390;2022-12-16T17:14:12;29.63;;;13.20;;
7338;SDS011;33747;49.524;8.390;2022-12-16T17:16:57;28.90;;;12.90;;
7338;SDS011;33747;49.524;8.390;2022-12-16T17:19:41;28.67;;;13.38;;
7338;SDS011;33747;49.524;8.390;2022-12-16T17:22:25;26.73;;;12.57;;
7338;SDS011;33747;49.524;8.390;2022-12-16T17:25:09;28.63;;;12.18;;
7338;SDS011;33747;49.524;8.390;2022-12-16T17:27:54;30.55;;;13.52;;
7338;SDS011;33747;49.524;8.390;2022-12-16T17:30:38;25.20;;;12.32;;
7338;SDS011;33747;49.524;8.390;2022-12-16T17:33:22;26.77;;;13.20;;
7338;SDS011;33747;49.524;8.390;2022-12-16T17:36:09;29.85;;;12.57;;